sensor_id;sensor_type;location;lat;lon;timestamp;P1;durP1;ratioP1;P2;durP2;ratioP2
19137;SDS011;68178;52.188;5.598;2023-04-15T00:01:21;10.40;;;5.40;;
19137;SDS011;68178;52.188;5.598;2023-04-15T00:03:49;9.55;;;5.28;;
19137;SDS011;68178;52.188;5.598;2023-04-15T00:06:16;11.77;;;5.00;;
19137;SDS011;68178;52.188;5.598;2023-04-15T00:08:43;9.98;;;5.97;;
19137;SDS011;68178;52.188;5.598;2023-04-15T00:11:09;8.77;;;5.68;;
19137;SDS011;68178;52.188;5.598;2023-04-15T00:13:35;12.65;;;5.68;;
19137;SDS011;68178;52.188;5.598;2023-04-15T00:16:01;12.18;;;5.47;;
19137;SDS011;68178;52.188;5.598;2023-04-15T00:18:27;7.35;;;5.60;;
19137;SDS011;68178;52.188;5.598;2023-04-15T00:20:53;8.63;;;5.38;;
19137;SDS011;68178;52.188;5.598;2023-04-15T00:23:19;7.25;;;5.25;;
19137;SDS011;68178;52.188;5.598;2023-04-15T00:25:45;11.90;;;5.32;;
19137;SDS011;68178;52.188;5.598;2023-04-15T00:28:11;10.68;;;5.25;;
19137;SDS011;68178;52.188;5.598;2023-04-15T00:30:36;9.50;;;5.90;;
19137;SDS011;68178;52.188;5.598;2023-04-15T00:33:02;8.95;;;5.30;;
19137;SDS011;68178;52.188;5.598;2023-04-15T00:35:28;7.82;;;5.00;;
19137;SDS011;68178;52.188;5.598;2023-04-15T00:37:56;9.57;;;5.32;;
19137;SDS011;68178;52.188;5.598;2023-04-15T00:40:22;7.00;;;4.88;;
19137;SDS011;68178;52.188;5.598;2023-04-15T00:42:48;10.32;;;5.28;;
19137;SDS011;68178;52.188;5.598;2023-04-15T00:45:14;9.38;;;5.10;;
19137;SDS011;68178;52.188;5.598;2023-04-15T00:47:42;8.98;;;5.28;;
19137;SDS011;68178;52.188;5.598;2023-04-15T00:50:08;7.40;;;5.05;;
19137;SDS011;68178;52.188;5.598;2023-04-15T00:52:35;8.48;;;5.55;;
19137;SDS011;68178;52.188;5.598;2023-04-15T00:55:01;7.45;;;5.78;;
19137;SDS011;68178;52.188;5.598;2023-04-15T00:57:28;9.65;;;5.22;;
19137;SDS011;68178;52.188;5.598;2023-04-15T00:59:54;7.78;;;5.18;;
19137;SDS011;68178;52.188;5.598;2023-04-15T01:02:21;10.27;;;5.95;;
19137;SDS011;68178;52.188;5.598;2023-04-15T01:04:47;6.32;;;4.65;;
19137;SDS011;68178;52.188;5.598;2023-04-15T01:07:14;13.63;;;5.75;;
19137;SDS011;68178;52.188;5.598;2023-04-15T01:09:40;9.65;;;5.05;;
19137;SDS011;68178;52.188;5.598;2023-04-15T01:12:10;7.60;;;5.45;;
19137;SDS011;68178;52.188;5.598;2023-04-15T01:14:38;9.80;;;5.30;;
19137;SDS011;68178;52.188;5.598;2023-04-15T01:17:03;8.23;;;5.10;;
19137;SDS011;68178;52.188;5.598;2023-04-15T01:19:32;6.47;;;5.15;;
19137;SDS011;68178;52.188;5.598;2023-04-15T01:21:57;8.98;;;5.63;;
19137;SDS011;68178;52.188;5.598;2023-04-15T01:24:23;8.90;;;5.15;;
19137;SDS011;68178;52.188;5.598;2023-04-15T01:26:54;5.53;;;5.03;;
19137;SDS011;68178;52.188;5.598;2023-04-15T01:29:20;9.32;;;5.78;;
19137;SDS011;68178;52.188;5.598;2023-04-15T01:31:50;9.55;;;5.47;;
19137;SDS011;68178;52.188;5.598;2023-04-15T01:34:16;8.40;;;5.03;;
19137;SDS011;68178;52.188;5.598;2023-04-15T01:36:42;8.35;;;5.95;;
19137;SDS011;68178;52.188;5.598;2023-04-15T01:39:08;6.97;;;5.40;;
19137;SDS011;68178;52.188;5.598;2023-04-15T01:41:33;8.27;;;5.50;;
19137;SDS011;68178;52.188;5.598;2023-04-15T01:43:59;10.23;;;6.30;;
19137;SDS011;68178;52.188;5.598;2023-04-15T01:46:25;9.75;;;5.28;;
19137;SDS011;68178;52.188;5.598;2023-04-15T01:48:51;11.50;;;6.22;;
19137;SDS011;68178;52.188;5.598;2023-04-15T01:51:17;10.05;;;6.18;;
19137;SDS011;68178;52.188;5.598;2023-04-15T01:53:42;7.90;;;5.57;;
19137;SDS011;68178;52.188;5.598;2023-04-15T01:56:08;7.15;;;5.32;;
19137;SDS011;68178;52.188;5.598;2023-04-15T01:58:33;9.68;;;5.78;;
19137;SDS011;68178;52.188;5.598;2023-04-15T02:00:59;9.27;;;6.00;;
19137;SDS011;68178;52.188;5.598;2023-04-15T02:03:27;7.95;;;5.57;;
19137;SDS011;68178;52.188;5.598;2023-04-15T02:05:56;8.55;;;6.60;;
19137;SDS011;68178;52.188;5.598;2023-04-15T02:08:21;7.70;;;5.95;;
19137;SDS011;68178;52.188;5.598;2023-04-15T02:10:47;6.13;;;5.50;;
19137;SDS011;68178;52.188;5.598;2023-04-15T02:13:12;10.55;;;6.03;;
19137;SDS011;68178;52.188;5.598;2023-04-15T02:15:38;13.48;;;6.63;;
19137;SDS011;68178;52.188;5.598;2023-04-15T02:18:04;10.38;;;5.80;;
19137;SDS011;68178;52.188;5.598;2023-04-15T02:20:29;7.90;;;6.35;;
19137;SDS011;68178;52.188;5.598;2023-04-15T02:22:56;11.98;;;6.95;;
19137;SDS011;68178;52.188;5.598;2023-04-15T02:25:27;8.75;;;6.63;;
19137;SDS011;68178;52.188;5.598;2023-04-15T02:27:56;10.70;;;6.38;;
19137;SDS011;68178;52.188;5.598;2023-04-15T02:30:22;8.90;;;6.25;;
19137;SDS011;68178;52.188;5.598;2023-04-15T02:32:49;8.88;;;6.50;;
19137;SDS011;68178;52.188;5.598;2023-04-15T02:35:17;11.15;;;6.97;;
19137;SDS011;68178;52.188;5.598;2023-04-15T02:37:44;9.23;;;6.65;;
19137;SDS011;68178;52.188;5.598;2023-04-15T02:40:10;11.52;;;6.95;;
19137;SDS011;68178;52.188;5.598;2023-04-15T02:42:40;9.27;;;6.63;;
19137;SDS011;68178;52.188;5.598;2023-04-15T02:45:06;11.95;;;6.40;;
19137;SDS011;68178;52.188;5.598;2023-04-15T02:47:33;11.27;;;7.18;;
19137;SDS011;68178;52.188;5.598;2023-04-15T02:50:00;8.68;;;6.80;;
19137;SDS011;68178;52.188;5.598;2023-04-15T02:52:29;13.65;;;7.50;;
19137;SDS011;68178;52.188;5.598;2023-04-15T02:54:55;12.88;;;6.85;;
19137;SDS011;68178;52.188;5.598;2023-04-15T02:57:24;10.77;;;7.38;;
19137;SDS011;68178;52.188;5.598;2023-04-15T02:59:51;10.50;;;7.43;;
19137;SDS011;68178;52.188;5.598;2023-04-15T03:02:17;11.93;;;7.38;;
19137;SDS011;68178;52.188;5.598;2023-04-15T03:04:42;8.02;;;6.40;;
19137;SDS011;68178;52.188;5.598;2023-04-15T03:07:08;10.45;;;8.10;;
19137;SDS011;68178;52.188;5.598;2023-04-15T03:09:33;12.93;;;7.80;;
19137;SDS011;68178;52.188;5.598;2023-04-15T03:12:00;12.65;;;7.97;;
19137;SDS011;68178;52.188;5.598;2023-04-15T03:14:26;13.70;;;7.78;;
19137;SDS011;68178;52.188;5.598;2023-04-15T03:16:51;9.40;;;7.75;;
19137;SDS011;68178;52.188;5.598;2023-04-15T03:19:17;9.63;;;7.78;;
19137;SDS011;68178;52.188;5.598;2023-04-15T03:21:42;14.57;;;8.52;;
19137;SDS011;68178;52.188;5.598;2023-04-15T03:24:09;14.13;;;7.55;;
19137;SDS011;68178;52.188;5.598;2023-04-15T03:26:35;12.93;;;8.25;;
19137;SDS011;68178;52.188;5.598;2023-04-15T03:29:00;11.23;;;7.68;;
19137;SDS011;68178;52.188;5.598;2023-04-15T03:31:26;10.82;;;7.63;;
19137;SDS011;68178;52.188;5.598;2023-04-15T03:33:51;11.68;;;7.80;;
19137;SDS011;68178;52.188;5.598;2023-04-15T03:36:17;11.10;;;7.60;;
19137;SDS011;68178;52.188;5.598;2023-04-15T03:38:42;9.82;;;8.02;;
19137;SDS011;68178;52.188;5.598;2023-04-15T03:41:08;10.98;;;7.97;;
19137;SDS011;68178;52.188;5.598;2023-04-15T03:43:34;10.95;;;7.80;;
19137;SDS011;68178;52.188;5.598;2023-04-15T03:45:59;11.00;;;8.05;;
19137;SDS011;68178;52.188;5.598;2023-04-15T03:48:25;13.18;;;8.82;;
19137;SDS011;68178;52.188;5.598;2023-04-15T03:50:51;11.45;;;8.40;;
19137;SDS011;68178;52.188;5.598;2023-04-15T03:53:20;11.95;;;8.85;;
19137;SDS011;68178;52.188;5.598;2023-04-15T03:55:45;14.43;;;8.82;;
19137;SDS011;68178;52.188;5.598;2023-04-15T03:58:11;9.10;;;7.82;;
19137;SDS011;68178;52.188;5.598;2023-04-15T04:00:37;12.60;;;8.77;;
19137;SDS011;68178;52.188;5.598;2023-04-15T04:03:03;10.48;;;9.25;;
19137;SDS011;68178;52.188;5.598;2023-04-15T04:05:29;14.07;;;9.00;;
19137;SDS011;68178;52.188;5.598;2023-04-15T04:07:55;10.98;;;8.70;;
19137;SDS011;68178;52.188;5.598;2023-04-15T04:10:20;15.63;;;8.55;;
19137;SDS011;68178;52.188;5.598;2023-04-15T04:12:46;14.38;;;8.30;;
19137;SDS011;68178;52.188;5.598;2023-04-15T04:15:11;10.32;;;8.48;;
19137;SDS011;68178;52.188;5.598;2023-04-15T04:17:37;15.23;;;9.48;;
19137;SDS011;68178;52.188;5.598;2023-04-15T04:20:02;11.30;;;8.10;;
19137;SDS011;68178;52.188;5.598;2023-04-15T04:22:29;11.90;;;8.40;;
19137;SDS011;68178;52.188;5.598;2023-04-15T04:24:55;13.75;;;8.85;;
19137;SDS011;68178;52.188;5.598;2023-04-15T04:27:21;11.52;;;9.52;;
19137;SDS011;68178;52.188;5.598;2023-04-15T04:29:46;11.95;;;8.60;;
19137;SDS011;68178;52.188;5.598;2023-04-15T04:32:13;11.32;;;8.80;;
19137;SDS011;68178;52.188;5.598;2023-04-15T04:34:39;12.85;;;9.15;;
19137;SDS011;68178;52.188;5.598;2023-04-15T04:37:05;12.45;;;8.90;;
19137;SDS011;68178;52.188;5.598;2023-04-15T04:39:31;11.50;;;8.85;;
19137;SDS011;68178;52.188;5.598;2023-04-15T04:41:56;10.80;;;9.15;;
19137;SDS011;68178;52.188;5.598;2023-04-15T04:44:22;9.85;;;8.85;;
19137;SDS011;68178;52.188;5.598;2023-04-15T04:46:48;12.32;;;9.43;;
19137;SDS011;68178;52.188;5.598;2023-04-15T04:49:13;12.98;;;10.02;;
19137;SDS011;68178;52.188;5.598;2023-04-15T04:51:38;12.63;;;9.32;;
19137;SDS011;68178;52.188;5.598;2023-04-15T04:54:04;13.52;;;10.02;;
19137;SDS011;68178;52.188;5.598;2023-04-15T04:56:30;12.60;;;9.50;;
19137;SDS011;68178;52.188;5.598;2023-04-15T04:58:55;14.18;;;10.13;;
19137;SDS011;68178;52.188;5.598;2023-04-15T05:01:21;12.93;;;9.40;;
19137;SDS011;68178;52.188;5.598;2023-04-15T05:03:46;11.98;;;9.40;;
19137;SDS011;68178;52.188;5.598;2023-04-15T05:06:12;12.30;;;10.32;;
19137;SDS011;68178;52.188;5.598;2023-04-15T05:08:38;14.90;;;10.63;;
19137;SDS011;68178;52.188;5.598;2023-04-15T05:11:05;14.00;;;11.10;;
19137;SDS011;68178;52.188;5.598;2023-04-15T05:13:31;14.85;;;11.20;;
19137;SDS011;68178;52.188;5.598;2023-04-15T05:15:56;13.23;;;10.13;;
19137;SDS011;68178;52.188;5.598;2023-04-15T05:18:22;13.70;;;10.80;;
19137;SDS011;68178;52.188;5.598;2023-04-15T05:20:47;15.48;;;10.75;;
19137;SDS011;68178;52.188;5.598;2023-04-15T05:23:14;15.75;;;11.23;;
19137;SDS011;68178;52.188;5.598;2023-04-15T05:25:40;14.60;;;11.68;;
19137;SDS011;68178;52.188;5.598;2023-04-15T05:28:05;13.50;;;11.00;;
19137;SDS011;68178;52.188;5.598;2023-04-15T05:30:31;14.95;;;12.05;;
19137;SDS011;68178;52.188;5.598;2023-04-15T05:32:57;15.38;;;11.93;;
19137;SDS011;68178;52.188;5.598;2023-04-15T05:35:22;14.45;;;11.23;;
19137;SDS011;68178;52.188;5.598;2023-04-15T05:37:48;16.00;;;12.02;;
19137;SDS011;68178;52.188;5.598;2023-04-15T05:40:13;15.00;;;11.73;;
19137;SDS011;68178;52.188;5.598;2023-04-15T05:42:39;14.52;;;11.75;;
19137;SDS011;68178;52.188;5.598;2023-04-15T05:45:05;18.35;;;12.85;;
19137;SDS011;68178;52.188;5.598;2023-04-15T05:47:33;16.15;;;11.98;;
19137;SDS011;68178;52.188;5.598;2023-04-15T05:49:59;15.45;;;11.90;;
19137;SDS011;68178;52.188;5.598;2023-04-15T05:52:25;15.48;;;12.63;;
19137;SDS011;68178;52.188;5.598;2023-04-15T05:54:51;13.68;;;11.77;;
19137;SDS011;68178;52.188;5.598;2023-04-15T05:57:16;15.73;;;11.63;;
19137;SDS011;68178;52.188;5.598;2023-04-15T05:59:42;14.23;;;12.05;;
19137;SDS011;68178;52.188;5.598;2023-04-15T06:02:08;14.98;;;11.63;;
19137;SDS011;68178;52.188;5.598;2023-04-15T06:04:34;14.10;;;11.15;;
19137;SDS011;68178;52.188;5.598;2023-04-15T06:07:00;13.90;;;11.65;;
19137;SDS011;68178;52.188;5.598;2023-04-15T06:09:26;19.35;;;11.95;;
19137;SDS011;68178;52.188;5.598;2023-04-15T06:11:52;15.35;;;11.13;;
19137;SDS011;68178;52.188;5.598;2023-04-15T06:14:21;15.85;;;11.77;;
19137;SDS011;68178;52.188;5.598;2023-04-15T06:16:47;15.77;;;11.88;;
19137;SDS011;68178;52.188;5.598;2023-04-15T06:19:13;15.38;;;11.13;;
19137;SDS011;68178;52.188;5.598;2023-04-15T06:21:38;15.88;;;11.30;;
19137;SDS011;68178;52.188;5.598;2023-04-15T06:24:04;15.82;;;10.75;;
19137;SDS011;68178;52.188;5.598;2023-04-15T06:26:30;14.70;;;10.93;;
19137;SDS011;68178;52.188;5.598;2023-04-15T06:28:55;15.27;;;11.07;;
19137;SDS011;68178;52.188;5.598;2023-04-15T06:31:21;15.07;;;11.00;;
19137;SDS011;68178;52.188;5.598;2023-04-15T06:33:47;15.45;;;10.38;;
19137;SDS011;68178;52.188;5.598;2023-04-15T06:36:12;14.23;;;11.15;;
19137;SDS011;68178;52.188;5.598;2023-04-15T06:38:38;12.00;;;10.68;;
19137;SDS011;68178;52.188;5.598;2023-04-15T06:41:04;14.98;;;10.82;;
19137;SDS011;68178;52.188;5.598;2023-04-15T06:43:29;14.15;;;10.40;;
19137;SDS011;68178;52.188;5.598;2023-04-15T06:45:55;13.75;;;10.20;;
19137;SDS011;68178;52.188;5.598;2023-04-15T06:48:23;14.32;;;10.68;;
19137;SDS011;68178;52.188;5.598;2023-04-15T06:50:49;13.95;;;10.52;;
19137;SDS011;68178;52.188;5.598;2023-04-15T06:53:15;12.77;;;11.10;;
19137;SDS011;68178;52.188;5.598;2023-04-15T06:55:40;15.88;;;11.13;;
19137;SDS011;68178;52.188;5.598;2023-04-15T06:58:06;11.73;;;10.15;;
19137;SDS011;68178;52.188;5.598;2023-04-15T07:00:32;16.05;;;11.00;;
19137;SDS011;68178;52.188;5.598;2023-04-15T07:02:58;13.25;;;10.75;;
19137;SDS011;68178;52.188;5.598;2023-04-15T07:05:27;12.50;;;9.93;;
19137;SDS011;68178;52.188;5.598;2023-04-15T07:07:56;15.52;;;10.90;;
19137;SDS011;68178;52.188;5.598;2023-04-15T07:10:22;12.93;;;10.00;;
19137;SDS011;68178;52.188;5.598;2023-04-15T07:12:48;17.20;;;9.50;;
19137;SDS011;68178;52.188;5.598;2023-04-15T07:15:16;10.25;;;8.75;;
19137;SDS011;68178;52.188;5.598;2023-04-15T07:17:45;14.05;;;9.27;;
19137;SDS011;68178;52.188;5.598;2023-04-15T07:20:10;13.15;;;9.38;;
19137;SDS011;68178;52.188;5.598;2023-04-15T07:22:36;14.85;;;10.05;;
19137;SDS011;68178;52.188;5.598;2023-04-15T07:25:02;11.20;;;8.90;;
19137;SDS011;68178;52.188;5.598;2023-04-15T07:27:28;10.48;;;8.40;;
19137;SDS011;68178;52.188;5.598;2023-04-15T07:29:54;9.50;;;8.00;;
19137;SDS011;68178;52.188;5.598;2023-04-15T07:32:19;9.25;;;7.97;;
19137;SDS011;68178;52.188;5.598;2023-04-15T07:34:45;9.65;;;7.55;;
19137;SDS011;68178;52.188;5.598;2023-04-15T07:37:10;9.57;;;7.47;;
19137;SDS011;68178;52.188;5.598;2023-04-15T07:39:36;9.23;;;7.88;;
19137;SDS011;68178;52.188;5.598;2023-04-15T07:42:02;8.52;;;7.63;;
19137;SDS011;68178;52.188;5.598;2023-04-15T07:44:28;8.10;;;7.30;;
19137;SDS011;68178;52.188;5.598;2023-04-15T07:46:53;9.55;;;8.30;;
19137;SDS011;68178;52.188;5.598;2023-04-15T07:49:20;8.52;;;7.00;;
19137;SDS011;68178;52.188;5.598;2023-04-15T07:51:45;7.95;;;7.15;;
19137;SDS011;68178;52.188;5.598;2023-04-15T07:54:11;9.00;;;7.75;;
19137;SDS011;68178;52.188;5.598;2023-04-15T07:56:37;8.20;;;6.28;;
19137;SDS011;68178;52.188;5.598;2023-04-15T07:59:02;7.70;;;6.50;;
19137;SDS011;68178;52.188;5.598;2023-04-15T08:01:30;7.82;;;7.03;;
19137;SDS011;68178;52.188;5.598;2023-04-15T08:03:55;7.65;;;6.03;;
19137;SDS011;68178;52.188;5.598;2023-04-15T08:06:21;8.63;;;6.00;;
19137;SDS011;68178;52.188;5.598;2023-04-15T08:08:47;7.00;;;5.93;;
19137;SDS011;68178;52.188;5.598;2023-04-15T08:11:12;7.63;;;6.45;;
19137;SDS011;68178;52.188;5.598;2023-04-15T08:13:41;8.18;;;6.50;;
19137;SDS011;68178;52.188;5.598;2023-04-15T08:18:49;6.40;;;5.47;;
19137;SDS011;68178;52.188;5.598;2023-04-15T08:21:17;8.55;;;5.68;;
19137;SDS011;68178;52.188;5.598;2023-04-15T08:23:43;6.78;;;5.78;;
19137;SDS011;68178;52.188;5.598;2023-04-15T08:26:10;6.00;;;5.45;;
19137;SDS011;68178;52.188;5.598;2023-04-15T08:28:39;7.18;;;5.18;;
19137;SDS011;68178;52.188;5.598;2023-04-15T08:31:06;7.40;;;5.03;;
19137;SDS011;68178;52.188;5.598;2023-04-15T08:33:33;5.50;;;4.90;;
19137;SDS011;68178;52.188;5.598;2023-04-15T08:35:58;7.05;;;4.43;;
19137;SDS011;68178;52.188;5.598;2023-04-15T08:38:24;8.20;;;4.85;;
19137;SDS011;68178;52.188;5.598;2023-04-15T08:40:50;6.63;;;4.65;;
19137;SDS011;68178;52.188;5.598;2023-04-15T08:43:23;4.60;;;4.20;;
19137;SDS011;68178;52.188;5.598;2023-04-15T08:45:52;6.15;;;4.55;;
19137;SDS011;68178;52.188;5.598;2023-04-15T08:48:19;7.35;;;4.75;;
19137;SDS011;68178;52.188;5.598;2023-04-15T08:50:49;5.32;;;4.03;;
19137;SDS011;68178;52.188;5.598;2023-04-15T08:53:16;6.38;;;4.90;;
19137;SDS011;68178;52.188;5.598;2023-04-15T08:55:43;4.93;;;4.53;;
19137;SDS011;68178;52.188;5.598;2023-04-15T08:58:09;8.13;;;5.05;;
19137;SDS011;68178;52.188;5.598;2023-04-15T09:00:36;7.28;;;4.50;;
19137;SDS011;68178;52.188;5.598;2023-04-15T09:03:03;5.22;;;4.68;;
19137;SDS011;68178;52.188;5.598;2023-04-15T09:05:31;5.32;;;4.63;;
19137;SDS011;68178;52.188;5.598;2023-04-15T09:07:57;5.60;;;5.00;;
19137;SDS011;68178;52.188;5.598;2023-04-15T09:10:23;6.30;;;4.90;;
19137;SDS011;68178;52.188;5.598;2023-04-15T09:12:49;5.80;;;4.30;;
19137;SDS011;68178;52.188;5.598;2023-04-15T09:15:14;5.97;;;4.50;;
19137;SDS011;68178;52.188;5.598;2023-04-15T09:17:43;7.15;;;4.10;;
19137;SDS011;68178;52.188;5.598;2023-04-15T09:20:10;5.28;;;4.18;;
19137;SDS011;68178;52.188;5.598;2023-04-15T09:22:38;5.45;;;4.13;;
19137;SDS011;68178;52.188;5.598;2023-04-15T09:25:26;8.55;;;5.40;;
19137;SDS011;68178;52.188;5.598;2023-04-15T09:27:59;5.22;;;4.55;;
19137;SDS011;68178;52.188;5.598;2023-04-15T09:30:28;5.32;;;3.72;;
19137;SDS011;68178;52.188;5.598;2023-04-15T09:32:55;5.88;;;3.30;;
19137;SDS011;68178;52.188;5.598;2023-04-15T09:35:23;3.67;;;2.58;;
19137;SDS011;68178;52.188;5.598;2023-04-15T09:37:50;2.70;;;2.20;;
19137;SDS011;68178;52.188;5.598;2023-04-15T09:40:35;2.83;;;2.42;;
19137;SDS011;68178;52.188;5.598;2023-04-15T09:43:05;2.75;;;2.17;;
19137;SDS011;68178;52.188;5.598;2023-04-15T09:45:32;2.85;;;2.35;;
19137;SDS011;68178;52.188;5.598;2023-04-15T09:47:59;3.67;;;2.30;;
19137;SDS011;68178;52.188;5.598;2023-04-15T09:50:39;3.22;;;2.25;;
19137;SDS011;68178;52.188;5.598;2023-04-15T09:53:08;3.20;;;2.55;;
19137;SDS011;68178;52.188;5.598;2023-04-15T09:55:42;3.30;;;3.00;;
19137;SDS011;68178;52.188;5.598;2023-04-15T09:58:16;3.22;;;2.92;;
19137;SDS011;68178;52.188;5.598;2023-04-15T10:00:43;5.63;;;2.88;;
19137;SDS011;68178;52.188;5.598;2023-04-15T10:03:11;3.47;;;2.85;;
19137;SDS011;68178;52.188;5.598;2023-04-15T10:05:39;3.75;;;3.45;;
19137;SDS011;68178;52.188;5.598;2023-04-15T10:08:04;6.30;;;4.47;;
19137;SDS011;68178;52.188;5.598;2023-04-15T10:10:30;4.85;;;4.13;;
19137;SDS011;68178;52.188;5.598;2023-04-15T10:12:57;5.88;;;4.03;;
19137;SDS011;68178;52.188;5.598;2023-04-15T10:15:23;4.97;;;3.42;;
19137;SDS011;68178;52.188;5.598;2023-04-15T10:17:49;5.35;;;3.90;;
19137;SDS011;68178;52.188;5.598;2023-04-15T10:20:18;4.45;;;3.92;;
19137;SDS011;68178;52.188;5.598;2023-04-15T10:22:44;4.15;;;3.40;;
19137;SDS011;68178;52.188;5.598;2023-04-15T10:25:11;4.68;;;4.28;;
19137;SDS011;68178;52.188;5.598;2023-04-15T10:27:38;4.65;;;3.70;;
19137;SDS011;68178;52.188;5.598;2023-04-15T10:30:06;3.88;;;3.22;;
19137;SDS011;68178;52.188;5.598;2023-04-15T10:32:33;3.97;;;3.53;;
19137;SDS011;68178;52.188;5.598;2023-04-15T10:35:01;5.43;;;3.58;;
19137;SDS011;68178;52.188;5.598;2023-04-15T10:37:36;3.75;;;3.40;;
19137;SDS011;68178;52.188;5.598;2023-04-15T10:42:48;3.80;;;3.30;;
19137;SDS011;68178;52.188;5.598;2023-04-15T10:45:17;4.18;;;3.30;;
19137;SDS011;68178;52.188;5.598;2023-04-15T10:47:43;5.30;;;3.33;;
19137;SDS011;68178;52.188;5.598;2023-04-15T10:50:09;3.92;;;3.53;;
19137;SDS011;68178;52.188;5.598;2023-04-15T10:52:36;3.42;;;3.13;;
19137;SDS011;68178;52.188;5.598;2023-04-15T10:55:12;3.55;;;3.25;;
19137;SDS011;68178;52.188;5.598;2023-04-15T10:57:40;2.90;;;2.67;;
19137;SDS011;68178;52.188;5.598;2023-04-15T11:05:14;3.67;;;2.80;;
19137;SDS011;68178;52.188;5.598;2023-04-15T11:12:42;3.00;;;2.45;;
19137;SDS011;68178;52.188;5.598;2023-04-15T11:15:26;3.35;;;2.97;;
19137;SDS011;68178;52.188;5.598;2023-04-15T11:17:55;3.83;;;3.03;;
19137;SDS011;68178;52.188;5.598;2023-04-15T11:20:22;2.90;;;2.70;;
19137;SDS011;68178;52.188;5.598;2023-04-15T11:22:52;2.42;;;2.22;;
19137;SDS011;68178;52.188;5.598;2023-04-15T11:25:22;2.67;;;2.47;;
19137;SDS011;68178;52.188;5.598;2023-04-15T11:27:48;4.35;;;2.45;;
19137;SDS011;68178;52.188;5.598;2023-04-15T11:30:21;3.92;;;2.65;;
19137;SDS011;68178;52.188;5.598;2023-04-15T11:32:51;2.65;;;2.05;;
19137;SDS011;68178;52.188;5.598;2023-04-15T11:35:19;2.28;;;2.08;;
19137;SDS011;68178;52.188;5.598;2023-04-15T11:37:46;5.38;;;2.47;;
19137;SDS011;68178;52.188;5.598;2023-04-15T11:40:16;3.78;;;2.80;;
19137;SDS011;68178;52.188;5.598;2023-04-15T11:43:02;3.60;;;2.78;;
19137;SDS011;68178;52.188;5.598;2023-04-15T11:45:49;3.03;;;2.83;;
19137;SDS011;68178;52.188;5.598;2023-04-15T11:48:28;4.15;;;2.67;;
19137;SDS011;68178;52.188;5.598;2023-04-15T11:50:59;3.30;;;3.00;;
19137;SDS011;68178;52.188;5.598;2023-04-15T11:53:39;3.88;;;2.83;;
19137;SDS011;68178;52.188;5.598;2023-04-15T11:56:16;3.53;;;2.70;;
19137;SDS011;68178;52.188;5.598;2023-04-15T11:58:52;4.15;;;2.65;;
19137;SDS011;68178;52.188;5.598;2023-04-15T12:01:20;2.25;;;2.05;;
19137;SDS011;68178;52.188;5.598;2023-04-15T12:04:12;2.10;;;1.88;;
19137;SDS011;68178;52.188;5.598;2023-04-15T12:06:39;2.65;;;1.70;;
19137;SDS011;68178;52.188;5.598;2023-04-15T12:11:37;2.22;;;2.00;;
19137;SDS011;68178;52.188;5.598;2023-04-15T12:14:12;2.33;;;1.52;;
19137;SDS011;68178;52.188;5.598;2023-04-15T12:16:44;1.42;;;1.30;;
19137;SDS011;68178;52.188;5.598;2023-04-15T12:19:25;2.53;;;1.90;;
19137;SDS011;68178;52.188;5.598;2023-04-15T12:21:57;1.75;;;1.48;;
19137;SDS011;68178;52.188;5.598;2023-04-15T12:24:24;3.78;;;1.80;;
19137;SDS011;68178;52.188;5.598;2023-04-15T12:26:54;2.05;;;1.63;;
19137;SDS011;68178;52.188;5.598;2023-04-15T12:29:24;3.83;;;1.90;;
19137;SDS011;68178;52.188;5.598;2023-04-15T12:31:55;3.72;;;1.70;;
19137;SDS011;68178;52.188;5.598;2023-04-15T12:34:29;2.72;;;1.60;;
19137;SDS011;68178;52.188;5.598;2023-04-15T12:36:56;3.38;;;1.30;;
19137;SDS011;68178;52.188;5.598;2023-04-15T12:39:24;1.70;;;1.50;;
19137;SDS011;68178;52.188;5.598;2023-04-15T12:41:51;2.80;;;1.38;;
19137;SDS011;68178;52.188;5.598;2023-04-15T12:44:16;2.78;;;1.58;;
19137;SDS011;68178;52.188;5.598;2023-04-15T12:46:42;3.70;;;2.00;;
19137;SDS011;68178;52.188;5.598;2023-04-15T12:49:08;2.55;;;1.42;;
19137;SDS011;68178;52.188;5.598;2023-04-15T12:51:34;5.28;;;1.40;;
19137;SDS011;68178;52.188;5.598;2023-04-15T12:53:59;1.83;;;1.42;;
19137;SDS011;68178;52.188;5.598;2023-04-15T12:56:25;1.95;;;1.30;;
19137;SDS011;68178;52.188;5.598;2023-04-15T12:58:51;3.75;;;1.40;;
19137;SDS011;68178;52.188;5.598;2023-04-15T13:01:16;5.35;;;1.77;;
19137;SDS011;68178;52.188;5.598;2023-04-15T13:03:42;1.85;;;1.60;;
19137;SDS011;68178;52.188;5.598;2023-04-15T13:06:08;2.65;;;1.45;;
19137;SDS011;68178;52.188;5.598;2023-04-15T13:08:33;2.17;;;1.60;;
19137;SDS011;68178;52.188;5.598;2023-04-15T13:10:59;1.55;;;1.40;;
19137;SDS011;68178;52.188;5.598;2023-04-15T13:13:26;3.20;;;1.40;;
19137;SDS011;68178;52.188;5.598;2023-04-15T13:15:51;2.58;;;1.20;;
19137;SDS011;68178;52.188;5.598;2023-04-15T13:18:17;2.83;;;1.45;;
19137;SDS011;68178;52.188;5.598;2023-04-15T13:20:43;3.20;;;1.23;;
19137;SDS011;68178;52.188;5.598;2023-04-15T13:23:08;1.88;;;1.55;;
19137;SDS011;68178;52.188;5.598;2023-04-15T13:25:34;2.97;;;1.10;;
19137;SDS011;68178;52.188;5.598;2023-04-15T13:28:00;3.50;;;1.23;;
19137;SDS011;68178;52.188;5.598;2023-04-15T13:30:27;2.92;;;1.10;;
19137;SDS011;68178;52.188;5.598;2023-04-15T13:32:53;2.70;;;1.50;;
19137;SDS011;68178;52.188;5.598;2023-04-15T13:35:19;3.75;;;1.65;;
19137;SDS011;68178;52.188;5.598;2023-04-15T13:37:45;3.05;;;1.42;;
19137;SDS011;68178;52.188;5.598;2023-04-15T13:40:11;2.78;;;1.48;;
19137;SDS011;68178;52.188;5.598;2023-04-15T13:42:38;2.80;;;1.35;;
19137;SDS011;68178;52.188;5.598;2023-04-15T13:45:03;2.50;;;1.55;;
19137;SDS011;68178;52.188;5.598;2023-04-15T13:47:29;1.35;;;1.25;;
19137;SDS011;68178;52.188;5.598;2023-04-15T13:49:55;2.10;;;1.40;;
19137;SDS011;68178;52.188;5.598;2023-04-15T13:52:21;2.58;;;1.15;;
19137;SDS011;68178;52.188;5.598;2023-04-15T13:54:47;2.63;;;1.20;;
19137;SDS011;68178;52.188;5.598;2023-04-15T13:57:13;2.30;;;1.25;;
19137;SDS011;68178;52.188;5.598;2023-04-15T13:59:39;2.58;;;1.50;;
19137;SDS011;68178;52.188;5.598;2023-04-15T14:02:05;1.80;;;1.25;;
19137;SDS011;68178;52.188;5.598;2023-04-15T14:04:31;5.30;;;1.77;;
19137;SDS011;68178;52.188;5.598;2023-04-15T14:06:57;2.90;;;1.48;;
19137;SDS011;68178;52.188;5.598;2023-04-15T14:09:22;5.00;;;2.10;;
19137;SDS011;68178;52.188;5.598;2023-04-15T14:11:48;3.20;;;1.73;;
19137;SDS011;68178;52.188;5.598;2023-04-15T14:14:14;2.70;;;1.67;;
19137;SDS011;68178;52.188;5.598;2023-04-15T14:16:40;3.90;;;1.70;;
19137;SDS011;68178;52.188;5.598;2023-04-15T14:19:06;3.88;;;1.65;;
19137;SDS011;68178;52.188;5.598;2023-04-15T14:21:31;4.10;;;1.88;;
19137;SDS011;68178;52.188;5.598;2023-04-15T14:23:57;1.75;;;1.20;;
19137;SDS011;68178;52.188;5.598;2023-04-15T14:26:26;1.60;;;1.50;;
19137;SDS011;68178;52.188;5.598;2023-04-15T14:28:51;4.65;;;2.03;;
19137;SDS011;68178;52.188;5.598;2023-04-15T14:31:17;3.67;;;2.22;;
19137;SDS011;68178;52.188;5.598;2023-04-15T14:33:43;3.40;;;1.52;;
19137;SDS011;68178;52.188;5.598;2023-04-15T14:36:10;2.63;;;1.92;;
19137;SDS011;68178;52.188;5.598;2023-04-15T14:38:36;2.40;;;1.80;;
19137;SDS011;68178;52.188;5.598;2023-04-15T14:41:05;3.85;;;1.92;;
19137;SDS011;68178;52.188;5.598;2023-04-15T14:43:32;8.80;;;2.67;;
19137;SDS011;68178;52.188;5.598;2023-04-15T14:45:57;2.83;;;1.95;;
19137;SDS011;68178;52.188;5.598;2023-04-15T14:48:23;6.50;;;2.30;;
19137;SDS011;68178;52.188;5.598;2023-04-15T14:50:49;4.68;;;2.10;;
19137;SDS011;68178;52.188;5.598;2023-04-15T14:53:14;3.88;;;2.30;;
19137;SDS011;68178;52.188;5.598;2023-04-15T14:55:40;4.30;;;1.50;;
19137;SDS011;68178;52.188;5.598;2023-04-15T14:58:06;6.55;;;1.90;;